createdAt,value
2017-11-27T00:00:23.987Z,9.13
2017-11-27T00:02:52.216Z,11.57
2017-11-27T00:05:19.712Z,11.20
2017-11-27T00:07:47.185Z,11.93
2017-11-27T00:10:15.410Z,8.43
2017-11-27T00:12:42.889Z,9.20
2017-11-27T00:15:10.361Z,9.80
2017-11-27T00:17:37.838Z,9.00
2017-11-27T00:20:06.079Z,11.63
2017-11-27T00:22:40.522Z,12.23
2017-11-27T00:25:07.984Z,12.43
2017-11-27T00:27:36.228Z,10.40
2017-11-27T00:30:03.697Z,8.90
2017-11-27T00:32:31.181Z,8.27
2017-11-27T00:34:59.417Z,14.43
2017-11-27T00:37:26.892Z,11.60
2017-11-27T00:39:54.365Z,11.20
2017-11-27T00:42:21.845Z,10.57
2017-11-27T00:44:50.092Z,16.00
2017-11-27T00:47:17.613Z,10.87
2017-11-27T00:49:45.114Z,15.80
2017-11-27T00:52:12.593Z,17.03
2017-11-27T00:54:40.829Z,10.97
2017-11-27T00:57:08.343Z,12.63
2017-11-27T00:59:35.815Z,14.43
2017-11-27T01:02:03.298Z,7.67
2017-11-27T01:04:30.761Z,11.33
2017-11-27T01:06:58.233Z,8.90
2017-11-27T01:09:25.697Z,8.00
2017-11-27T01:11:53.178Z,11.00
2017-11-27T01:14:21.405Z,7.97
2017-11-27T01:16:49.649Z,7.17
2017-11-27T01:19:17.125Z,5.83
2017-11-27T01:21:44.613Z,6.20
2017-11-27T01:24:12.094Z,5.50
2017-11-27T01:26:39.555Z,5.27
2017-11-27T01:29:07.793Z,5.93
2017-11-27T01:31:35.263Z,9.13
2017-11-27T01:34:02.727Z,9.20
2017-11-27T01:36:30.189Z,8.20
2017-11-27T01:38:57.666Z,9.20
2017-11-27T01:41:25.904Z,9.03
2017-11-27T01:43:53.390Z,8.03
2017-11-27T01:46:20.849Z,8.30
2017-11-27T01:48:49.087Z,8.97
2017-11-27T01:51:16.556Z,12.50
2017-11-27T01:53:44.033Z,10.83
2017-11-27T01:56:11.522Z,9.93
2017-11-27T01:58:39.003Z,16.73
2017-11-27T02:01:06.469Z,11.87
2017-11-27T02:03:33.973Z,8.83
2017-11-27T02:06:01.414Z,14.00
2017-11-27T02:08:28.895Z,10.80
2017-11-27T02:10:57.125Z,13.50
2017-11-27T02:13:24.601Z,17.53
2017-11-27T02:15:52.065Z,10.40
2017-11-27T02:18:19.548Z,8.23
2017-11-27T02:20:47.782Z,10.20
2017-11-27T02:23:15.316Z,13.30
2017-11-27T02:25:42.789Z,10.43
2017-11-27T02:28:10.264Z,12.70
2017-11-27T02:30:37.731Z,10.60
2017-11-27T02:33:05.220Z,10.33
2017-11-27T02:35:33.450Z,13.50
2017-11-27T02:38:00.927Z,13.20
2017-11-27T02:40:28.399Z,11.20
2017-11-27T02:42:55.865Z,10.20
2017-11-27T02:45:24.109Z,10.00
2017-11-27T02:47:51.584Z,9.43
2017-11-27T02:50:19.085Z,12.43
2017-11-27T02:52:46.590Z,9.20
2017-11-27T02:55:14.070Z,9.13
2017-11-27T02:57:41.533Z,8.13
2017-11-27T03:00:09.784Z,13.30
2017-11-27T03:02:37.253Z,12.90
2017-11-27T03:05:04.733Z,10.60
2017-11-27T03:07:32.965Z,11.03
2017-11-27T03:10:00.441Z,12.77
2017-11-27T03:12:27.912Z,10.97
2017-11-27T03:14:56.166Z,10.40
2017-11-27T03:17:23.646Z,11.90
2017-11-27T03:19:51.126Z,12.43
2017-11-27T03:22:19.365Z,10.37
2017-11-27T03:24:46.839Z,11.23
2017-11-27T03:27:15.072Z,11.90
2017-11-27T03:29:43.313Z,8.87
2017-11-27T03:32:10.788Z,13.40
2017-11-27T03:34:38.261Z,8.50
2017-11-27T03:37:05.752Z,10.80
2017-11-27T03:39:33.212Z,12.10
2017-11-27T03:42:00.672Z,7.20
2017-11-27T03:44:28.149Z,9.33
2017-11-27T03:46:56.378Z,11.80
2017-11-27T03:49:24.124Z,11.00
2017-11-27T03:51:51.600Z,12.13
2017-11-27T03:54:19.056Z,8.53
2017-11-27T03:56:46.534Z,10.67
2017-11-27T03:59:13.992Z,10.87
2017-11-27T04:01:41.461Z,10.70
2017-11-27T04:04:08.920Z,12.57
2017-11-27T04:06:36.393Z,6.93
2017-11-27T04:09:04.613Z,11.07
2017-11-27T04:11:32.084Z,10.17
2017-11-27T04:13:59.541Z,10.33
2017-11-27T04:16:27.019Z,9.23
2017-11-27T04:18:54.481Z,13.20
2017-11-27T04:21:21.964Z,8.53
2017-11-27T04:23:50.188Z,13.33
2017-11-27T04:26:17.648Z,9.37
2017-11-27T04:28:45.113Z,9.20
2017-11-27T04:31:12.576Z,8.07
2017-11-27T04:33:40.036Z,8.40
2017-11-27T04:36:07.526Z,10.70
2017-11-27T04:38:35.739Z,11.77
2017-11-27T04:41:03.209Z,7.27
2017-11-27T04:43:30.660Z,6.90
2017-11-27T04:45:58.121Z,9.27
2017-11-27T04:48:25.580Z,10.10
2017-11-27T04:50:53.048Z,9.40
2017-11-27T04:53:20.508Z,6.80
2017-11-27T04:55:47.981Z,12.93
2017-11-27T04:58:15.444Z,9.43
2017-11-27T05:00:42.909Z,11.00
2017-11-27T05:03:10.360Z,9.70
2017-11-27T05:05:37.825Z,7.37
2017-11-27T05:08:05.331Z,7.63
2017-11-27T05:10:32.768Z,8.80
2017-11-27T05:13:00.236Z,9.07
2017-11-27T05:15:27.703Z,8.30
2017-11-27T05:17:55.165Z,7.90
2017-11-27T05:20:22.623Z,9.30
2017-11-27T05:22:50.109Z,13.73
2017-11-27T05:25:17.555Z,8.77
2017-11-27T05:27:45.029Z,13.67
2017-11-27T05:30:12.500Z,9.70
2017-11-27T05:32:39.980Z,12.27
2017-11-27T05:35:08.208Z,10.87
2017-11-27T05:37:35.668Z,9.40
2017-11-27T05:40:03.129Z,9.37
2017-11-27T05:42:30.599Z,9.17
2017-11-27T05:44:58.054Z,9.50
2017-11-27T05:47:25.520Z,8.23
2017-11-27T05:49:52.968Z,9.70
2017-11-27T05:52:20.435Z,11.57
2017-11-27T05:54:47.883Z,9.30
2017-11-27T05:57:15.369Z,7.77
2017-11-27T05:59:43.589Z,9.97
2017-11-27T06:02:11.052Z,6.70
2017-11-27T06:04:38.512Z,7.77
2017-11-27T06:07:05.982Z,6.80
2017-11-27T06:09:33.483Z,4.80
2017-11-27T06:12:01.700Z,6.60
2017-11-27T06:14:29.171Z,4.80
2017-11-27T06:16:56.615Z,5.20
2017-11-27T06:19:24.088Z,5.57
2017-11-27T06:21:51.547Z,5.03
2017-11-27T06:24:19.012Z,7.20
2017-11-27T06:26:46.474Z,5.60
2017-11-27T06:29:13.943Z,6.30
2017-11-27T06:31:41.397Z,6.93
2017-11-27T06:34:08.867Z,6.03
2017-11-27T06:36:37.086Z,4.63
2017-11-27T06:39:04.549Z,5.30
2017-11-27T06:41:32.027Z,6.67
2017-11-27T06:43:59.487Z,4.83
2017-11-27T06:46:26.953Z,4.87
2017-11-27T06:48:54.420Z,14.20
2017-11-27T06:51:21.903Z,4.23
2017-11-27T06:53:50.128Z,4.93
2017-11-27T06:56:17.594Z,6.67
2017-11-27T06:58:45.059Z,5.97
2017-11-27T07:01:12.521Z,6.40
2017-11-27T07:03:39.998Z,8.63
2017-11-27T07:06:08.219Z,4.83
2017-11-27T07:08:35.685Z,5.47
2017-11-27T07:11:03.162Z,4.70
2017-11-27T07:13:30.632Z,4.70
2017-11-27T07:15:58.088Z,5.73
2017-11-27T07:18:25.552Z,5.20
2017-11-27T07:20:53.008Z,4.13
2017-11-27T07:23:20.481Z,4.37
2017-11-27T07:25:48.729Z,5.20
2017-11-27T07:28:16.196Z,6.80
2017-11-27T07:30:43.660Z,7.87
2017-11-27T07:33:11.129Z,5.03
2017-11-27T07:35:39.348Z,6.20
2017-11-27T07:38:12.660Z,5.13
2017-11-27T07:40:40.508Z,7.30
2017-11-27T07:43:07.970Z,5.10
2017-11-27T07:45:35.435Z,4.53
2017-11-27T07:48:02.900Z,4.00
2017-11-27T07:50:30.383Z,6.57
2017-11-27T07:52:57.845Z,5.30
2017-11-27T07:55:25.311Z,5.10
2017-11-27T07:57:53.543Z,5.13
2017-11-27T08:00:21.004Z,6.33
2017-11-27T08:02:48.459Z,4.97
2017-11-27T08:05:15.943Z,6.47
2017-11-27T08:07:43.404Z,3.57
2017-11-27T08:10:10.875Z,6.13
2017-11-27T08:12:38.324Z,4.80
2017-11-27T08:15:05.792Z,5.90
2017-11-27T08:17:33.248Z,4.67
2017-11-27T08:20:01.488Z,11.50
2017-11-27T08:22:28.988Z,3.90
2017-11-27T08:24:57.231Z,3.77
2017-11-27T08:27:24.682Z,4.47
2017-11-27T08:29:52.152Z,5.60
2017-11-27T08:32:19.611Z,5.93
2017-11-27T08:34:47.083Z,7.83
2017-11-27T08:37:14.539Z,4.73
2017-11-27T08:39:42.013Z,5.23
2017-11-27T08:42:09.460Z,5.33
2017-11-27T08:44:36.924Z,5.73
2017-11-27T08:47:05.148Z,9.80
2017-11-27T08:49:32.604Z,6.37
2017-11-27T08:52:00.064Z,3.00
2017-11-27T08:54:27.536Z,8.60
2017-11-27T08:56:54.998Z,3.70
2017-11-27T08:59:22.453Z,3.33
2017-11-27T09:01:49.925Z,6.67
2017-11-27T09:04:17.379Z,5.00
2017-11-27T09:06:44.843Z,5.43
2017-11-27T09:09:12.304Z,5.20
2017-11-27T09:11:39.769Z,3.17
2017-11-27T09:14:08.129Z,5.40
2017-11-27T09:16:35.601Z,5.00
2017-11-27T09:19:03.060Z,5.27
2017-11-27T09:21:30.523Z,4.80
2017-11-27T09:23:57.991Z,2.67
2017-11-27T09:26:25.455Z,3.50
2017-11-27T09:28:54.416Z,2.70
2017-11-27T09:31:22.648Z,7.70
2017-11-27T09:33:50.108Z,7.10
2017-11-27T09:36:17.576Z,3.47
2017-11-27T09:38:45.033Z,4.40
2017-11-27T09:41:12.493Z,4.00
2017-11-27T09:43:39.947Z,4.07
2017-11-27T09:46:07.420Z,9.70
2017-11-27T09:48:34.893Z,7.03
2017-11-27T09:51:02.360Z,3.27
2017-11-27T09:53:29.816Z,6.10
2017-11-27T09:55:57.292Z,9.83
2017-11-27T09:58:24.763Z,4.23
2017-11-27T10:00:53.915Z,3.73
2017-11-27T10:03:22.144Z,2.70
2017-11-27T10:05:50.382Z,2.67
2017-11-27T10:08:17.840Z,2.97
2017-11-27T10:10:45.326Z,2.53
2017-11-27T10:13:13.552Z,2.60
2017-11-27T10:15:41.022Z,3.20
2017-11-27T10:18:08.480Z,2.70
2017-11-27T10:20:35.936Z,2.27
2017-11-27T10:23:03.411Z,2.77
2017-11-27T10:25:30.874Z,6.40
2017-11-27T10:27:58.332Z,2.63
2017-11-27T10:30:25.793Z,2.60
2017-11-27T10:32:53.261Z,5.17
2017-11-27T10:35:20.724Z,3.10
2017-11-27T10:37:48.965Z,1.87
2017-11-27T10:40:16.424Z,2.00
2017-11-27T10:42:43.888Z,2.03
2017-11-27T10:45:11.353Z,1.60
2017-11-27T10:47:38.816Z,2.60
2017-11-27T10:50:06.282Z,3.53
2017-11-27T10:52:33.755Z,2.20
2017-11-27T10:55:01.988Z,2.03
2017-11-27T10:57:29.626Z,3.70
2017-11-27T10:59:57.083Z,2.90
2017-11-27T11:02:24.544Z,1.50
2017-11-27T11:04:52.404Z,1.63
2017-11-27T11:07:19.896Z,2.07
2017-11-27T11:09:47.461Z,3.80
2017-11-27T11:12:15.026Z,1.77
2017-11-27T11:14:42.480Z,5.47
2017-11-27T11:17:09.962Z,1.20
2017-11-27T11:19:37.425Z,1.23
2017-11-27T11:22:05.662Z,1.80
2017-11-27T11:24:33.125Z,1.30
2017-11-27T11:27:00.587Z,1.10
2017-11-27T11:29:28.058Z,1.30
2017-11-27T11:31:55.520Z,1.30
2017-11-27T11:34:22.984Z,2.27
2017-11-27T11:36:50.445Z,1.47
2017-11-27T11:39:18.675Z,2.07
2017-11-27T11:41:46.144Z,1.63
2017-11-27T11:44:13.716Z,1.10
2017-11-27T11:46:41.273Z,1.17
2017-11-27T11:49:08.739Z,2.70
2017-11-27T11:51:36.191Z,2.53
2017-11-27T11:54:03.659Z,3.60
2017-11-27T11:56:31.120Z,3.50
2017-11-27T11:58:58.576Z,1.70
2017-11-27T12:01:26.033Z,1.40
2017-11-27T12:03:53.490Z,1.33
2017-11-27T12:06:20.944Z,1.57
2017-11-27T12:08:48.495Z,0.90
2017-11-27T12:11:16.326Z,0.90
2017-11-27T12:13:43.832Z,4.03
2017-11-27T12:16:15.832Z,2.30
2017-11-27T12:18:44.056Z,3.60
2017-11-27T12:21:11.508Z,2.00
2017-11-27T12:23:38.991Z,2.60
2017-11-27T12:26:06.443Z,1.43
2017-11-27T12:28:33.907Z,2.30
2017-11-27T12:31:01.362Z,2.10
2017-11-27T12:33:29.608Z,1.30
2017-11-27T12:35:57.080Z,1.00
2017-11-27T12:38:24.539Z,1.83
2017-11-27T12:40:52.002Z,1.10
2017-11-27T12:43:19.478Z,2.13
2017-11-27T12:45:47.703Z,0.73
2017-11-27T12:48:15.200Z,1.00
2017-11-27T12:50:42.663Z,1.57
2017-11-27T12:53:10.147Z,1.07
2017-11-27T12:55:38.434Z,1.30
2017-11-27T12:58:05.902Z,1.47
2017-11-27T13:00:33.359Z,1.40
2017-11-27T13:03:00.828Z,1.57
2017-11-27T13:05:28.328Z,2.00
2017-11-27T13:07:55.791Z,1.50
2017-11-27T13:10:23.254Z,2.17
2017-11-27T13:12:51.543Z,1.03
2017-11-27T13:15:19.787Z,1.77
2017-11-27T13:17:47.351Z,1.10
2017-11-27T13:20:14.823Z,0.70
2017-11-27T13:22:42.372Z,1.03
2017-11-27T13:25:09.923Z,0.90
2017-11-27T13:27:37.399Z,4.30
2017-11-27T13:30:04.862Z,1.37
2017-11-27T13:32:33.124Z,1.10
2017-11-27T13:35:00.684Z,1.43
2017-11-27T13:37:28.159Z,0.80
2017-11-27T13:39:56.375Z,0.93
2017-11-27T13:42:23.864Z,1.73
2017-11-27T13:44:51.341Z,0.80
2017-11-27T13:47:19.169Z,0.97
2017-11-27T13:49:47.479Z,1.50
2017-11-27T13:52:14.944Z,0.70
2017-11-27T13:54:42.403Z,1.17
2017-11-27T13:57:09.851Z,0.90
2017-11-27T13:59:37.340Z,0.97
2017-11-27T14:02:05.591Z,0.80
2017-11-27T14:04:33.059Z,0.70
2017-11-27T14:07:01.283Z,1.30
2017-11-27T14:09:28.740Z,0.60
2017-11-27T14:11:56.208Z,0.90
2017-11-27T14:14:23.681Z,0.77
2017-11-27T14:16:51.150Z,1.17
2017-11-27T14:19:18.703Z,2.87
2017-11-27T14:21:46.272Z,6.70
2017-11-27T14:24:13.741Z,3.47
2017-11-27T14:26:41.198Z,1.87
2017-11-27T14:29:08.668Z,0.80
2017-11-27T14:31:36.901Z,0.90
2017-11-27T14:34:04.367Z,0.60
2017-11-27T14:36:31.829Z,0.80
2017-11-27T14:38:59.297Z,1.00
2017-11-27T14:41:26.755Z,0.70
2017-11-27T14:43:54.249Z,0.60
2017-11-27T14:46:21.787Z,0.70
2017-11-27T14:48:49.261Z,0.73
2017-11-27T14:51:17.477Z,0.50
2017-11-27T14:53:44.938Z,0.60
2017-11-27T14:56:12.415Z,1.00
2017-11-27T14:58:39.872Z,0.60
2017-11-27T15:01:07.366Z,0.50
2017-11-27T15:03:35.604Z,0.70
2017-11-27T15:06:03.193Z,0.63
2017-11-27T15:08:31.453Z,0.40
2017-11-27T15:10:58.921Z,0.40
2017-11-27T15:13:26.382Z,1.37
2017-11-27T15:15:54.612Z,0.70
2017-11-27T15:18:22.071Z,1.40
2017-11-27T15:20:49.540Z,0.53
2017-11-27T15:23:16.997Z,0.70
2017-11-27T15:25:44.458Z,0.70
2017-11-27T15:28:11.944Z,0.80
2017-11-27T15:30:39.413Z,0.50
2017-11-27T15:33:07.635Z,1.03
2017-11-27T15:35:35.104Z,0.60
2017-11-27T15:38:02.555Z,0.53
2017-11-27T15:40:30.052Z,0.70
2017-11-27T15:42:57.506Z,0.83
2017-11-27T15:45:24.975Z,0.73
2017-11-27T15:47:53.206Z,0.70
2017-11-27T15:50:20.677Z,1.17
2017-11-27T15:52:48.153Z,0.60
2017-11-27T15:55:15.602Z,0.70
2017-11-27T15:57:43.070Z,0.60
2017-11-27T16:00:10.524Z,0.63
2017-11-27T16:02:38.003Z,0.77
2017-11-27T16:05:06.224Z,0.73
2017-11-27T16:07:33.687Z,0.77
2017-11-27T16:10:01.153Z,0.50
2017-11-27T16:12:28.619Z,0.73
2017-11-27T16:14:56.088Z,0.90
2017-11-27T16:17:24.335Z,1.20
2017-11-27T16:19:51.794Z,1.00
2017-11-27T16:22:19.260Z,0.80
2017-11-27T16:24:46.723Z,0.80
2017-11-27T16:27:14.205Z,0.70
2017-11-27T16:29:41.651Z,0.80
2017-11-27T16:32:09.128Z,1.03
2017-11-27T16:34:37.364Z,0.60
2017-11-27T16:37:04.838Z,1.70
2017-11-27T16:39:32.299Z,1.00
2017-11-27T16:41:59.771Z,0.60
2017-11-27T16:44:27.237Z,0.60
2017-11-27T16:46:55.472Z,0.93
2017-11-27T16:49:22.931Z,3.03
2017-11-27T16:51:50.395Z,0.70
2017-11-27T16:54:17.856Z,0.80
2017-11-27T16:56:45.323Z,0.70
2017-11-27T16:59:12.776Z,0.70
2017-11-27T17:01:40.253Z,0.50
2017-11-27T17:04:07.701Z,0.93
2017-11-27T17:06:35.175Z,0.70
2017-11-27T17:09:02.634Z,0.80
2017-11-27T17:11:33.860Z,1.00
2017-11-27T17:14:01.332Z,1.30
2017-11-27T17:16:28.791Z,2.50
2017-11-27T17:18:57.023Z,0.70
2017-11-27T17:21:24.479Z,0.60
2017-11-27T17:23:51.948Z,4.53
2017-11-27T17:26:20.224Z,1.13
2017-11-27T17:28:47.682Z,0.83
2017-11-27T17:31:15.146Z,1.03
2017-11-27T17:33:42.612Z,0.93
2017-11-27T17:36:10.069Z,1.27
2017-11-27T17:38:37.539Z,1.00
2017-11-27T17:41:05.007Z,0.83
2017-11-27T17:43:32.468Z,1.67
2017-11-27T17:45:59.927Z,1.23
2017-11-27T17:48:28.175Z,1.30
2017-11-27T17:50:56.575Z,0.80
2017-11-27T17:53:24.066Z,2.10
2017-11-27T17:55:51.519Z,0.93
2017-11-27T17:58:19.004Z,0.80
2017-11-27T18:00:46.467Z,1.30
2017-11-27T18:03:13.951Z,1.27
2017-11-27T18:05:41.403Z,1.33
2017-11-27T18:08:08.855Z,0.90
2017-11-27T18:10:36.328Z,0.83
2017-11-27T18:13:03.789Z,0.70
2017-11-27T18:15:31.270Z,3.90
2017-11-27T18:17:59.493Z,0.77
2017-11-27T18:20:27.176Z,1.30
2017-11-27T18:22:54.657Z,1.10
2017-11-27T18:25:22.129Z,1.40
2017-11-27T18:27:50.360Z,1.60
2017-11-27T18:30:17.840Z,1.50
2017-11-27T18:32:45.302Z,1.30
2017-11-27T18:35:12.791Z,1.67
2017-11-27T18:37:41.007Z,1.80
2017-11-27T18:40:08.471Z,1.30
2017-11-27T18:42:35.928Z,1.80
2017-11-27T18:45:03.390Z,1.23
2017-11-27T18:47:30.849Z,1.83
2017-11-27T18:49:58.324Z,1.40
2017-11-27T18:52:25.784Z,1.50
2017-11-27T18:54:53.246Z,1.40
2017-11-27T18:57:20.717Z,1.30
2017-11-27T18:59:48.951Z,1.97
2017-11-27T19:02:16.418Z,1.80
2017-11-27T19:04:43.883Z,1.27
2017-11-27T19:07:11.345Z,1.30
2017-11-27T19:09:38.827Z,1.20
2017-11-27T19:12:07.060Z,1.10
2017-11-27T19:14:35.284Z,1.10
2017-11-27T19:17:03.528Z,0.97
2017-11-27T19:19:30.988Z,1.20
2017-11-27T19:21:58.452Z,1.27
2017-11-27T19:24:25.908Z,1.30
2017-11-27T19:26:53.376Z,1.10
2017-11-27T19:29:21.599Z,0.80
2017-11-27T19:31:49.091Z,0.70
2017-11-27T19:34:33.145Z,0.83
2017-11-27T19:37:01.220Z,0.53
2017-11-27T19:39:28.674Z,0.87
2017-11-27T19:41:56.234Z,2.20
2017-11-27T19:44:23.692Z,0.60
2017-11-27T19:46:51.165Z,0.57
2017-11-27T19:49:18.622Z,0.60
2017-11-27T19:51:46.083Z,0.80
2017-11-27T19:54:14.312Z,0.80
2017-11-27T19:56:41.786Z,0.80
2017-11-27T19:59:09.255Z,0.80
2017-11-27T20:01:37.483Z,0.80
2017-11-27T20:04:04.937Z,0.83
2017-11-27T20:06:32.406Z,1.30
2017-11-27T20:08:59.861Z,0.80
2017-11-27T20:11:27.327Z,0.80
2017-11-27T20:13:54.784Z,1.17
2017-11-27T20:16:22.245Z,0.70
2017-11-27T20:18:49.720Z,1.33
2017-11-27T20:21:17.200Z,1.23
2017-11-27T20:23:44.671Z,0.70
2017-11-27T20:26:12.128Z,1.20
2017-11-27T20:28:40.352Z,0.93
2017-11-27T20:31:07.823Z,1.17
2017-11-27T20:33:35.287Z,1.10
2017-11-27T20:36:02.743Z,1.00
2017-11-27T20:38:30.321Z,0.90
2017-11-27T20:40:57.781Z,0.97
2017-11-27T20:43:25.247Z,0.80
2017-11-27T20:45:53.480Z,1.10
2017-11-27T20:48:20.940Z,0.90
2017-11-27T20:50:48.400Z,1.20
2017-11-27T20:53:15.868Z,1.07
2017-11-27T20:55:43.337Z,1.67
2017-11-27T20:58:10.848Z,1.63
2017-11-27T21:00:38.316Z,2.93
2017-11-27T21:03:05.780Z,1.13
2017-11-27T21:05:33.230Z,0.80
2017-11-27T21:08:00.708Z,0.90
2017-11-27T21:10:28.159Z,1.83
2017-11-27T21:12:55.620Z,0.97
2017-11-27T21:15:23.094Z,1.00
2017-11-27T21:17:50.562Z,1.13
2017-11-27T21:20:18.019Z,1.30
2017-11-27T21:22:45.480Z,0.70
2017-11-27T21:25:12.936Z,0.80
2017-11-27T21:27:40.403Z,0.70
2017-11-27T21:30:07.961Z,0.80
2017-11-27T21:32:35.534Z,0.97
2017-11-27T21:35:03.008Z,1.70
2017-11-27T21:37:31.259Z,0.60
2017-11-27T21:39:58.715Z,0.50
2017-11-27T21:42:26.201Z,0.70
2017-11-27T21:44:54.433Z,0.63
2017-11-27T21:47:21.904Z,0.63
2017-11-27T21:49:49.365Z,1.43
2017-11-27T21:52:16.820Z,0.40
2017-11-27T21:54:44.284Z,0.60
2017-11-27T21:57:11.749Z,0.60
2017-11-27T21:59:39.217Z,0.73
2017-11-27T22:02:06.673Z,0.90
2017-11-27T22:04:34.914Z,0.80
2017-11-27T22:07:02.394Z,0.70
2017-11-27T22:09:29.939Z,0.70
2017-11-27T22:11:57.415Z,0.70
2017-11-27T22:14:24.973Z,1.73
2017-11-27T22:16:52.431Z,1.10
2017-11-27T22:19:19.891Z,0.87
2017-11-27T22:21:47.453Z,0.73
2017-11-27T22:24:14.911Z,1.57
2017-11-27T22:26:43.178Z,0.87
2017-11-27T22:29:10.732Z,0.70
2017-11-27T22:31:38.300Z,1.10
2017-11-27T22:34:05.864Z,0.50
2017-11-27T22:36:33.311Z,0.50
2017-11-27T22:39:00.876Z,1.23
2017-11-27T22:41:28.332Z,1.20
2017-11-27T22:43:55.891Z,1.47
2017-11-27T22:46:23.349Z,0.60
2017-11-27T22:48:50.837Z,0.50
2017-11-27T22:51:19.056Z,1.20
2017-11-27T22:53:46.549Z,0.50
2017-11-27T22:56:15.538Z,0.60
2017-11-27T22:58:43.101Z,0.50
2017-11-27T23:01:10.656Z,0.67
2017-11-27T23:03:38.224Z,0.40
2017-11-27T23:06:05.687Z,0.60
2017-11-27T23:08:33.148Z,0.50
2017-11-27T23:11:00.695Z,0.77
2017-11-27T23:13:28.170Z,0.90
2017-11-27T23:15:56.407Z,0.53
2017-11-27T23:18:23.862Z,0.70
2017-11-27T23:20:51.336Z,3.37
2017-11-27T23:23:18.800Z,0.60
2017-11-27T23:25:46.279Z,0.50
2017-11-27T23:28:13.762Z,0.50
2017-11-27T23:30:41.257Z,0.80
2017-11-27T23:33:08.725Z,0.50
2017-11-27T23:35:36.197Z,1.43
2017-11-27T23:38:03.668Z,0.80
2017-11-27T23:40:31.140Z,0.70
2017-11-27T23:45:53.675Z,1.27
2017-11-27T23:48:21.162Z,0.63
2017-11-27T23:50:49.398Z,1.47
2017-11-27T23:53:16.857Z,0.63
2017-11-27T23:55:44.354Z,1.00
2017-11-27T23:58:12.577Z,0.63
